sensor_id;sensor_type;location;lat;lon;timestamp;pressure;altitude;pressure_sealevel;temperature;humidity
62655;BME280;48717;55.556;37.816;2023-02-14T00:01:09;98167.97;;;-0.21;88.17
62655;BME280;48717;55.556;37.816;2023-02-14T00:03:37;98182.81;;;-0.09;88.30
62655;BME280;48717;55.556;37.816;2023-02-14T00:06:10;98188.88;;;-0.09;89.09
62655;BME280;48717;55.556;37.816;2023-02-14T00:08:38;98190.63;;;-0.08;88.04
62655;BME280;48717;55.556;37.816;2023-02-14T00:11:06;98197.53;;;-0.08;88.00
62655;BME280;48717;55.556;37.816;2023-02-14T00:13:37;98201.00;;;-0.08;88.66
62655;BME280;48717;55.556;37.816;2023-02-14T00:16:04;98176.75;;;-0.11;87.60
62655;BME280;48717;55.556;37.816;2023-02-14T00:18:31;98192.41;;;-0.04;88.22
62655;BME280;48717;55.556;37.816;2023-02-14T00:21:16;98200.13;;;-0.07;89.31
62655;BME280;48717;55.556;37.816;2023-02-14T00:23:43;98187.88;;;-0.17;89.89
62655;BME280;48717;55.556;37.816;2023-02-14T00:26:14;98195.66;;;-0.17;90.42
62655;BME280;48717;55.556;37.816;2023-02-14T00:28:42;98195.59;;;-0.22;89.96
62655;BME280;48717;55.556;37.816;2023-02-14T00:31:09;98207.75;;;-0.16;89.87
62655;BME280;48717;55.556;37.816;2023-02-14T00:33:37;98208.66;;;-0.16;90.20
62655;BME280;48717;55.556;37.816;2023-02-14T00:36:09;98204.34;;;-0.14;89.63
62655;BME280;48717;55.556;37.816;2023-02-14T00:38:36;98214.72;;;-0.15;89.85
62655;BME280;48717;55.556;37.816;2023-02-14T00:41:03;98221.63;;;-0.14;90.68
62655;BME280;48717;55.556;37.816;2023-02-14T00:43:30;98200.75;;;-0.23;90.46
62655;BME280;48717;55.556;37.816;2023-02-14T00:45:57;98218.06;;;-0.21;90.54
62655;BME280;48717;55.556;37.816;2023-02-14T00:48:25;98217.97;;;-0.25;90.64
62655;BME280;48717;55.556;37.816;2023-02-14T00:50:53;98212.72;;;-0.32;91.70
62655;BME280;48717;55.556;37.816;2023-02-14T00:53:20;98201.34;;;-0.40;91.68
62655;BME280;48717;55.556;37.816;2023-02-14T00:55:48;98216.25;;;-0.27;91.94
62655;BME280;48717;55.556;37.816;2023-02-14T00:58:15;98210.97;;;-0.33;92.21
62655;BME280;48717;55.556;37.816;2023-02-14T01:00:42;98215.25;;;-0.35;92.77
62655;BME280;48717;55.556;37.816;2023-02-14T01:03:09;98225.66;;;-0.32;92.12
62655;BME280;48717;55.556;37.816;2023-02-14T01:05:36;98199.50;;;-0.46;92.73
62655;BME280;48717;55.556;37.816;2023-02-14T01:08:04;98230.81;;;-0.33;93.54
62655;BME280;48717;55.556;37.816;2023-02-14T01:10:31;98238.56;;;-0.35;93.59
62655;BME280;48717;55.556;37.816;2023-02-14T01:13:01;98241.09;;;-0.36;93.99
62655;BME280;48717;55.556;37.816;2023-02-14T01:15:41;98242.06;;;-0.33;94.74
62655;BME280;48717;55.556;37.816;2023-02-14T01:21:37;98227.28;;;-0.38;95.65
62655;BME280;48717;55.556;37.816;2023-02-14T01:24:05;98227.06;;;-0.51;96.50
62655;BME280;48717;55.556;37.816;2023-02-14T01:26:34;98227.97;;;-0.47;96.67
62655;BME280;48717;55.556;37.816;2023-02-14T01:29:03;98233.97;;;-0.50;97.29
62655;BME280;48717;55.556;37.816;2023-02-14T01:31:32;98245.22;;;-0.49;96.96
62655;BME280;48717;55.556;37.816;2023-02-14T01:33:59;98246.00;;;-0.54;96.11
62655;BME280;48717;55.556;37.816;2023-02-14T01:36:30;98243.34;;;-0.57;96.27
62655;BME280;48717;55.556;37.816;2023-02-14T01:39:00;98254.66;;;-0.51;96.68
62655;BME280;48717;55.556;37.816;2023-02-14T01:41:31;98244.41;;;-0.45;95.50
62655;BME280;48717;55.556;37.816;2023-02-14T01:44:07;98253.94;;;-0.44;95.43
62655;BME280;48717;55.556;37.816;2023-02-14T01:46:50;98241.78;;;-0.48;94.69
62655;BME280;48717;55.556;37.816;2023-02-14T01:49:21;98263.53;;;-0.38;95.15
62655;BME280;48717;55.556;37.816;2023-02-14T01:54:39;98272.16;;;-0.38;96.41
62655;BME280;48717;55.556;37.816;2023-02-14T01:57:09;98249.69;;;-0.39;96.36
62655;BME280;48717;55.556;37.816;2023-02-14T01:59:52;98256.56;;;-0.43;96.40
62655;BME280;48717;55.556;37.816;2023-02-14T02:02:22;98259.03;;;-0.47;96.03
62655;BME280;48717;55.556;37.816;2023-02-14T02:04:52;98259.91;;;-0.48;96.37
62655;BME280;48717;55.556;37.816;2023-02-14T02:07:25;98272.78;;;-0.51;97.53
62655;BME280;48717;55.556;37.816;2023-02-14T02:09:59;98267.56;;;-0.55;97.35
62655;BME280;48717;55.556;37.816;2023-02-14T02:12:31;98250.16;;;-0.62;96.64
62655;BME280;48717;55.556;37.816;2023-02-14T02:15:03;98255.44;;;-0.56;97.09
62655;BME280;48717;55.556;37.816;2023-02-14T02:37:01;98276.63;;;-0.77;97.29
62655;BME280;48717;55.556;37.816;2023-02-14T02:42:35;98261.81;;;-0.86;96.02
62655;BME280;48717;55.556;37.816;2023-02-14T02:45:32;98260.25;;;-0.77;96.03
62655;BME280;48717;55.556;37.816;2023-02-14T02:48:33;98226.22;;;-0.96;96.60
62655;BME280;48717;55.556;37.816;2023-02-14T02:51:09;98262.00;;;-0.73;96.18
62655;BME280;48717;55.556;37.816;2023-02-14T02:54:22;98258.53;;;-0.75;96.27
62655;BME280;48717;55.556;37.816;2023-02-14T02:56:56;98248.81;;;-0.87;95.91
62655;BME280;48717;55.556;37.816;2023-02-14T02:59:27;98267.16;;;-0.76;97.22
62655;BME280;48717;55.556;37.816;2023-02-14T03:04:27;98263.59;;;-0.82;96.44
62655;BME280;48717;55.556;37.816;2023-02-14T03:07:13;98246.13;;;-0.92;96.15
62655;BME280;48717;55.556;37.816;2023-02-14T03:15:09;98278.16;;;-0.87;96.21
62655;BME280;48717;55.556;37.816;2023-02-14T03:23:33;98286.22;;;-0.71;97.79
62655;BME280;48717;55.556;37.816;2023-02-14T03:31:33;98281.94;;;-0.71;98.86
62655;BME280;48717;55.556;37.816;2023-02-14T03:34:12;98244.47;;;-0.90;98.42
62655;BME280;48717;55.556;37.816;2023-02-14T03:36:49;98274.00;;;-0.79;99.62
62655;BME280;48717;55.556;37.816;2023-02-14T03:42:05;98269.16;;;-1.06;97.07
62655;BME280;48717;55.556;37.816;2023-02-14T03:44:35;98276.00;;;-1.08;98.12
62655;BME280;48717;55.556;37.816;2023-02-14T03:47:07;98296.03;;;-0.99;99.01
62655;BME280;48717;55.556;37.816;2023-02-14T03:49:40;98280.09;;;-1.18;99.70
62655;BME280;48717;55.556;37.816;2023-02-14T03:52:09;98300.94;;;-1.12;100.00
62655;BME280;48717;55.556;37.816;2023-02-14T03:54:38;98287.06;;;-1.17;99.86
62655;BME280;48717;55.556;37.816;2023-02-14T03:59:47;98257.00;;;-1.50;99.54
62655;BME280;48717;55.556;37.816;2023-02-14T04:02:20;98285.72;;;-1.38;100.00
62655;BME280;48717;55.556;37.816;2023-02-14T04:04:51;98264.88;;;-1.46;98.97
62655;BME280;48717;55.556;37.816;2023-02-14T04:07:21;98313.72;;;-1.20;98.80
62655;BME280;48717;55.556;37.816;2023-02-14T04:09:49;98289.41;;;-1.28;98.83
62655;BME280;48717;55.556;37.816;2023-02-14T04:12:17;98310.38;;;-1.14;100.00
62655;BME280;48717;55.556;37.816;2023-02-14T04:14:58;98296.63;;;-1.13;100.00
62655;BME280;48717;55.556;37.816;2023-02-14T04:17:25;98310.41;;;-1.12;100.00
62655;BME280;48717;55.556;37.816;2023-02-14T04:20:10;98309.53;;;-1.14;100.00
62655;BME280;48717;55.556;37.816;2023-02-14T04:22:37;98266.00;;;-1.33;100.00
62655;BME280;48717;55.556;37.816;2023-02-14T04:25:05;98298.19;;;-1.20;100.00
62655;BME280;48717;55.556;37.816;2023-02-14T04:27:32;98269.38;;;-1.37;100.00
62655;BME280;48717;55.556;37.816;2023-02-14T04:29:59;98313.59;;;-1.24;100.00
62655;BME280;48717;55.556;37.816;2023-02-14T04:32:26;98315.34;;;-1.23;100.00
62655;BME280;48717;55.556;37.816;2023-02-14T04:34:53;98324.84;;;-1.22;99.97
62655;BME280;48717;55.556;37.816;2023-02-14T04:37:20;98324.84;;;-1.22;99.74
62655;BME280;48717;55.556;37.816;2023-02-14T04:39:47;98329.25;;;-1.18;100.00
62655;BME280;48717;55.556;37.816;2023-02-14T04:42:15;98278.75;;;-1.42;100.00
62655;BME280;48717;55.556;37.816;2023-02-14T04:44:42;98329.97;;;-1.25;99.78
62655;BME280;48717;55.556;37.816;2023-02-14T04:47:16;98301.94;;;-1.45;98.83
62655;BME280;48717;55.556;37.816;2023-02-14T04:49:43;98317.53;;;-1.42;99.02
62655;BME280;48717;55.556;37.816;2023-02-14T04:52:10;98326.06;;;-1.46;99.52
62655;BME280;48717;55.556;37.816;2023-02-14T04:54:38;98340.03;;;-1.38;99.41
62655;BME280;48717;55.556;37.816;2023-02-14T04:57:05;98315.38;;;-1.62;98.69
62655;BME280;48717;55.556;37.816;2023-02-14T04:59:32;98325.75;;;-1.59;99.52
62655;BME280;48717;55.556;37.816;2023-02-14T05:02:00;98334.69;;;-1.46;98.60
62655;BME280;48717;55.556;37.816;2023-02-14T05:04:27;98334.44;;;-1.56;98.75
62655;BME280;48717;55.556;37.816;2023-02-14T05:06:54;98344.06;;;-1.51;98.60
62655;BME280;48717;55.556;37.816;2023-02-14T05:09:21;98367.72;;;-1.34;97.43
62655;BME280;48717;55.556;37.816;2023-02-14T05:11:48;98367.00;;;-1.28;97.48
62655;BME280;48717;55.556;37.816;2023-02-14T05:14:15;98350.38;;;-1.38;96.50
62655;BME280;48717;55.556;37.816;2023-02-14T05:16:42;98368.72;;;-1.27;96.62
62655;BME280;48717;55.556;37.816;2023-02-14T05:19:09;98376.66;;;-1.19;96.11
62655;BME280;48717;55.556;37.816;2023-02-14T05:21:36;98386.19;;;-1.16;96.39
62655;BME280;48717;55.556;37.816;2023-02-14T05:24:04;98389.72;;;-1.14;94.97
62655;BME280;48717;55.556;37.816;2023-02-14T05:26:31;98355.91;;;-1.21;95.54
62655;BME280;48717;55.556;37.816;2023-02-14T05:28:58;98390.84;;;-1.01;93.32
62655;BME280;48717;55.556;37.816;2023-02-14T05:31:26;98406.56;;;-0.92;93.59
62655;BME280;48717;55.556;37.816;2023-02-14T05:33:53;98394.59;;;-0.87;92.38
62655;BME280;48717;55.556;37.816;2023-02-14T05:36:20;98388.53;;;-0.89;92.05
62655;BME280;48717;55.556;37.816;2023-02-14T05:38:47;98397.47;;;-0.74;91.79
62655;BME280;48717;55.556;37.816;2023-02-14T05:41:14;98398.38;;;-0.72;90.86
62655;BME280;48717;55.556;37.816;2023-02-14T05:43:41;98387.06;;;-0.76;91.46
62655;BME280;48717;55.556;37.816;2023-02-14T05:46:08;98399.31;;;-0.69;90.72
62655;BME280;48717;55.556;37.816;2023-02-14T05:48:35;98401.22;;;-0.61;89.89
62655;BME280;48717;55.556;37.816;2023-02-14T05:51:08;98406.47;;;-0.57;90.18
62655;BME280;48717;55.556;37.816;2023-02-14T05:53:36;98398.66;;;-0.58;89.29
62655;BME280;48717;55.556;37.816;2023-02-14T05:56:03;98407.50;;;-0.48;90.05
62655;BME280;48717;55.556;37.816;2023-02-14T05:58:31;98388.34;;;-0.57;88.37
62655;BME280;48717;55.556;37.816;2023-02-14T06:00:58;98398.84;;;-0.49;88.66
62655;BME280;48717;55.556;37.816;2023-02-14T06:03:28;98383.13;;;-0.60;89.39
62655;BME280;48717;55.556;37.816;2023-02-14T06:05:55;98391.06;;;-0.49;88.74
62655;BME280;48717;55.556;37.816;2023-02-14T06:08:22;98411.19;;;-0.37;89.72
62655;BME280;48717;55.556;37.816;2023-02-14T06:10:49;98351.06;;;-0.67;88.89
62655;BME280;48717;55.556;37.816;2023-02-14T06:13:17;98365.78;;;-0.64;89.37
62655;BME280;48717;55.556;37.816;2023-02-14T06:15:54;98392.09;;;-0.42;88.60
62655;BME280;48717;55.556;37.816;2023-02-14T06:18:21;98399.28;;;-0.29;88.00
62655;BME280;48717;55.556;37.816;2023-02-14T06:20:48;98381.78;;;-0.39;88.35
62655;BME280;48717;55.556;37.816;2023-02-14T06:23:18;98404.56;;;-0.22;89.33
62655;BME280;48717;55.556;37.816;2023-02-14T06:25:46;98375.03;;;-0.31;88.82
62655;BME280;48717;55.556;37.816;2023-02-14T06:28:13;98413.28;;;-0.17;88.48
62655;BME280;48717;55.556;37.816;2023-02-14T06:30:40;98363.63;;;-0.42;89.21
62655;BME280;48717;55.556;37.816;2023-02-14T06:33:08;98404.75;;;-0.13;88.69
62655;BME280;48717;55.556;37.816;2023-02-14T06:35:35;98419.59;;;-0.04;88.26
62655;BME280;48717;55.556;37.816;2023-02-14T06:38:02;98392.75;;;-0.08;87.96
62655;BME280;48717;55.556;37.816;2023-02-14T06:40:29;98399.72;;;-0.04;88.14
62655;BME280;48717;55.556;37.816;2023-02-14T06:42:57;98410.25;;;0.06;87.79
62655;BME280;48717;55.556;37.816;2023-02-14T06:45:24;98418.16;;;0.12;88.02
62655;BME280;48717;55.556;37.816;2023-02-14T06:47:51;98342.91;;;-0.42;89.17
62655;BME280;48717;55.556;37.816;2023-02-14T06:50:18;98389.28;;;-0.07;89.87
62655;BME280;48717;55.556;37.816;2023-02-14T06:52:45;98435.53;;;0.18;89.48
62655;BME280;48717;55.556;37.816;2023-02-14T06:55:13;98428.78;;;0.24;89.29
62655;BME280;48717;55.556;37.816;2023-02-14T06:57:40;98435.63;;;0.22;88.46
62655;BME280;48717;55.556;37.816;2023-02-14T07:00:08;98424.16;;;0.11;88.96
62655;BME280;48717;55.556;37.816;2023-02-14T07:02:36;98388.50;;;-0.03;88.10
62655;BME280;48717;55.556;37.816;2023-02-14T07:05:03;98426.13;;;0.21;87.52
62655;BME280;48717;55.556;37.816;2023-02-14T07:07:30;98412.44;;;0.32;85.48
62655;BME280;48717;55.556;37.816;2023-02-14T07:09:57;98429.88;;;0.39;84.40
62655;BME280;48717;55.556;37.816;2023-02-14T07:12:24;98400.44;;;0.37;84.24
62655;BME280;48717;55.556;37.816;2023-02-14T07:14:51;98450.13;;;0.60;83.88
62655;BME280;48717;55.556;37.816;2023-02-14T07:17:19;98454.47;;;0.63;83.21
62655;BME280;48717;55.556;37.816;2023-02-14T07:19:46;98450.13;;;0.60;83.17
62655;BME280;48717;55.556;37.816;2023-02-14T07:22:13;98453.47;;;0.55;83.40
62655;BME280;48717;55.556;37.816;2023-02-14T07:24:40;98465.66;;;0.59;83.39
62655;BME280;48717;55.556;37.816;2023-02-14T07:27:07;98473.28;;;0.49;84.85
62655;BME280;48717;55.556;37.816;2023-02-14T07:29:35;98470.69;;;0.49;85.38
62655;BME280;48717;55.556;37.816;2023-02-14T07:32:03;98472.50;;;0.55;85.47
62655;BME280;48717;55.556;37.816;2023-02-14T07:34:30;98434.94;;;0.33;85.60
62655;BME280;48717;55.556;37.816;2023-02-14T07:36:59;98460.34;;;0.51;85.14
62655;BME280;48717;55.556;37.816;2023-02-14T07:39:27;98454.09;;;0.41;84.90
62655;BME280;48717;55.556;37.816;2023-02-14T07:41:54;98474.13;;;0.48;85.20
62655;BME280;48717;55.556;37.816;2023-02-14T07:44:25;98486.34;;;0.54;85.38
62655;BME280;48717;55.556;37.816;2023-02-14T07:46:52;98479.31;;;0.48;85.47
62655;BME280;48717;55.556;37.816;2023-02-14T07:49:19;98476.66;;;0.45;86.36
62655;BME280;48717;55.556;37.816;2023-02-14T07:51:46;98478.47;;;0.49;85.83
62655;BME280;48717;55.556;37.816;2023-02-14T07:54:39;98497.47;;;0.48;85.82
62655;BME280;48717;55.556;37.816;2023-02-14T07:57:06;98485.38;;;0.50;86.56
62655;BME280;48717;55.556;37.816;2023-02-14T07:59:33;98488.66;;;0.40;86.50
62655;BME280;48717;55.556;37.816;2023-02-14T08:02:00;98497.56;;;0.55;86.20
62655;BME280;48717;55.556;37.816;2023-02-14T08:04:27;98492.31;;;0.50;86.03
62655;BME280;48717;55.556;37.816;2023-02-14T08:06:55;98490.75;;;0.61;85.89
62655;BME280;48717;55.556;37.816;2023-02-14T08:09:22;98502.09;;;0.65;85.39
62655;BME280;48717;55.556;37.816;2023-02-14T08:11:54;98457.72;;;0.49;85.70
62655;BME280;48717;55.556;37.816;2023-02-14T08:14:41;98501.84;;;0.51;88.47
62655;BME280;48717;55.556;37.816;2023-02-14T08:17:09;98512.97;;;0.45;90.29
62655;BME280;48717;55.556;37.816;2023-02-14T08:19:36;98514.66;;;0.43;91.58
62655;BME280;48717;55.556;37.816;2023-02-14T08:22:04;98494.44;;;0.25;91.95
62655;BME280;48717;55.556;37.816;2023-02-14T08:24:31;98516.69;;;0.60;92.55
62655;BME280;48717;55.556;37.816;2023-02-14T08:26:58;98487.31;;;0.61;91.20
62655;BME280;48717;55.556;37.816;2023-02-14T08:29:25;98513.47;;;0.73;89.73
62655;BME280;48717;55.556;37.816;2023-02-14T08:31:52;98532.81;;;0.93;88.64
62655;BME280;48717;55.556;37.816;2023-02-14T08:34:20;98510.25;;;0.87;86.42
62655;BME280;48717;55.556;37.816;2023-02-14T08:36:47;98497.22;;;0.84;85.13
62655;BME280;48717;55.556;37.816;2023-02-14T08:39:14;98517.19;;;0.88;84.55
62655;BME280;48717;55.556;37.816;2023-02-14T08:41:41;98491.69;;;0.63;84.24
62655;BME280;48717;55.556;37.816;2023-02-14T08:44:08;98534.97;;;0.66;83.60
62655;BME280;48717;55.556;37.816;2023-02-14T08:46:35;98530.81;;;0.77;83.53
62655;BME280;48717;55.556;37.816;2023-02-14T08:49:03;98540.31;;;0.75;81.57
62655;BME280;48717;55.556;37.816;2023-02-14T08:51:30;98466.06;;;0.33;82.17
62655;BME280;48717;55.556;37.816;2023-02-14T08:53:57;98503.78;;;0.63;81.84
62655;BME280;48717;55.556;37.816;2023-02-14T08:56:24;98557.31;;;1.09;81.46
62655;BME280;48717;55.556;37.816;2023-02-14T08:58:52;98561.91;;;1.25;80.48
62655;BME280;48717;55.556;37.816;2023-02-14T09:01:20;98537.75;;;1.29;79.18
62655;BME280;48717;55.556;37.816;2023-02-14T09:03:47;98523.94;;;1.32;79.03
62655;BME280;48717;55.556;37.816;2023-02-14T09:06:16;98560.56;;;1.51;78.08
62655;BME280;48717;55.556;37.816;2023-02-14T09:08:44;98565.78;;;1.49;77.96
62655;BME280;48717;55.556;37.816;2023-02-14T09:11:20;98556.91;;;1.38;78.50
62655;BME280;48717;55.556;37.816;2023-02-14T09:13:51;98578.63;;;1.40;78.44
62655;BME280;48717;55.556;37.816;2023-02-14T09:16:20;98574.19;;;1.34;80.17
62655;BME280;48717;55.556;37.816;2023-02-14T09:18:48;98546.78;;;0.99;80.72
62655;BME280;48717;55.556;37.816;2023-02-14T09:21:18;98590.25;;;1.13;81.44
62655;BME280;48717;55.556;37.816;2023-02-14T09:23:46;98585.06;;;1.13;81.91
62655;BME280;48717;55.556;37.816;2023-02-14T09:26:15;98583.34;;;1.12;83.25
62655;BME280;48717;55.556;37.816;2023-02-14T09:28:43;98562.28;;;0.95;84.13
62655;BME280;48717;55.556;37.816;2023-02-14T09:33:39;98588.56;;;1.13;84.98
62655;BME280;48717;55.556;37.816;2023-02-14T09:36:07;98576.47;;;1.14;84.46
62655;BME280;48717;55.556;37.816;2023-02-14T09:38:53;98581.22;;;1.41;83.67
62655;BME280;48717;55.556;37.816;2023-02-14T09:46:50;98563.28;;;1.03;82.41
62655;BME280;48717;55.556;37.816;2023-02-14T09:49:26;98613.72;;;1.17;84.85
62655;BME280;48717;55.556;37.816;2023-02-14T09:51:58;98613.56;;;1.08;84.92
62655;BME280;48717;55.556;37.816;2023-02-14T09:54:28;98615.91;;;0.94;87.06
62655;BME280;48717;55.556;37.816;2023-02-14T09:57:12;98575.22;;;0.45;88.33
62655;BME280;48717;55.556;37.816;2023-02-14T09:59:49;98616.97;;;0.58;90.49
62655;BME280;48717;55.556;37.816;2023-02-14T10:05:20;98621.53;;;0.27;93.73
62655;BME280;48717;55.556;37.816;2023-02-14T10:10:25;98609.03;;;0.07;95.09
62655;BME280;48717;55.556;37.816;2023-02-14T10:15:58;98634.72;;;-0.03;96.73
62655;BME280;48717;55.556;37.816;2023-02-14T10:18:59;98667.72;;;0.05;97.69
62655;BME280;48717;55.556;37.816;2023-02-14T10:21:36;98649.84;;;-0.21;98.77
62655;BME280;48717;55.556;37.816;2023-02-14T10:24:17;98663.13;;;-0.07;99.73
62655;BME280;48717;55.556;37.816;2023-02-14T10:26:48;98660.53;;;-0.07;99.56
62655;BME280;48717;55.556;37.816;2023-02-14T10:29:17;98667.63;;;0.02;98.78
62655;BME280;48717;55.556;37.816;2023-02-14T10:31:59;98668.56;;;0.04;98.80
62655;BME280;48717;55.556;37.816;2023-02-14T10:34:49;98669.94;;;0.28;98.22
62655;BME280;48717;55.556;37.816;2023-02-14T10:45:46;98673.91;;;0.51;90.82
62655;BME280;48717;55.556;37.816;2023-02-14T10:53:59;98693.59;;;0.85;87.42
62655;BME280;48717;55.556;37.816;2023-02-14T10:56:45;98680.75;;;0.93;86.04
62655;BME280;48717;55.556;37.816;2023-02-14T10:59:33;98699.09;;;1.00;85.35
62655;BME280;48717;55.556;37.816;2023-02-14T11:02:01;98718.00;;;0.93;84.20
62655;BME280;48717;55.556;37.816;2023-02-14T11:04:30;98674.22;;;0.67;84.36
62655;BME280;48717;55.556;37.816;2023-02-14T11:06:58;98695.41;;;0.89;85.11
62655;BME280;48717;55.556;37.816;2023-02-14T11:09:25;98717.66;;;1.21;84.50
62655;BME280;48717;55.556;37.816;2023-02-14T11:11:54;98702.13;;;1.24;82.35
62655;BME280;48717;55.556;37.816;2023-02-14T11:14:26;98699.56;;;1.25;81.46
62655;BME280;48717;55.556;37.816;2023-02-14T11:16:57;98718.69;;;1.30;81.23
62655;BME280;48717;55.556;37.816;2023-02-14T11:19:32;98720.31;;;1.25;80.14
62655;BME280;48717;55.556;37.816;2023-02-14T11:22:03;98705.28;;;1.07;80.85
62655;BME280;48717;55.556;37.816;2023-02-14T11:24:35;98714.69;;;1.00;79.85
62655;BME280;48717;55.556;37.816;2023-02-14T11:27:14;98701.09;;;0.71;80.50
62655;BME280;48717;55.556;37.816;2023-02-14T11:29:45;98730.00;;;0.88;79.70
62655;BME280;48717;55.556;37.816;2023-02-14T11:32:26;98693.91;;;0.56;79.03
62655;BME280;48717;55.556;37.816;2023-02-14T11:37:36;98692.84;;;0.47;78.34
62655;BME280;48717;55.556;37.816;2023-02-14T11:40:06;98743.56;;;0.74;78.00
62655;BME280;48717;55.556;37.816;2023-02-14T11:42:41;98748.81;;;0.77;78.26
62655;BME280;48717;55.556;37.816;2023-02-14T11:45:39;98758.16;;;0.69;79.11
62655;BME280;48717;55.556;37.816;2023-02-14T11:48:21;98736.97;;;0.49;79.75
62655;BME280;48717;55.556;37.816;2023-02-14T11:51:13;98742.91;;;0.43;80.06
62655;BME280;48717;55.556;37.816;2023-02-14T11:53:49;98773.50;;;0.60;80.35
62655;BME280;48717;55.556;37.816;2023-02-14T11:56:19;98749.91;;;0.47;80.14
62655;BME280;48717;55.556;37.816;2023-02-14T11:58:54;98783.34;;;0.73;80.53
62655;BME280;48717;55.556;37.816;2023-02-14T12:01:28;98776.53;;;0.78;79.65
62655;BME280;48717;55.556;37.816;2023-02-14T12:03:59;98781.66;;;0.75;83.23
62655;BME280;48717;55.556;37.816;2023-02-14T12:06:32;98783.19;;;0.67;83.84
62655;BME280;48717;55.556;37.816;2023-02-14T12:12:02;98782.91;;;0.55;83.62
62655;BME280;48717;55.556;37.816;2023-02-14T12:14:32;98788.38;;;0.67;82.67
62655;BME280;48717;55.556;37.816;2023-02-14T12:17:08;98788.97;;;0.95;81.35
62655;BME280;48717;55.556;37.816;2023-02-14T12:19:54;98793.72;;;1.60;77.17
62655;BME280;48717;55.556;37.816;2023-02-14T12:22:45;98784.44;;;2.28;71.52
62655;BME280;48717;55.556;37.816;2023-02-14T12:25:19;98776.94;;;2.45;70.93
62655;BME280;48717;55.556;37.816;2023-02-14T12:28:02;98779.88;;;2.69;68.87
62655;BME280;48717;55.556;37.816;2023-02-14T12:30:32;98807.72;;;2.76;67.86
62655;BME280;48717;55.556;37.816;2023-02-14T12:33:00;98817.28;;;2.77;68.50
62655;BME280;48717;55.556;37.816;2023-02-14T12:36:08;98817.69;;;3.08;67.72
62655;BME280;48717;55.556;37.816;2023-02-14T12:39:09;98835.00;;;3.03;67.64
62655;BME280;48717;55.556;37.816;2023-02-14T12:42:01;98846.78;;;2.76;68.21
62655;BME280;48717;55.556;37.816;2023-02-14T12:44:50;98847.06;;;2.38;69.68
62655;BME280;48717;55.556;37.816;2023-02-14T12:47:42;98839.34;;;1.93;70.88
62655;BME280;48717;55.556;37.816;2023-02-14T12:50:19;98857.97;;;1.67;72.45
62655;BME280;48717;55.556;37.816;2023-02-14T13:04:47;98865.81;;;0.87;76.08
62655;BME280;48717;55.556;37.816;2023-02-14T13:07:45;98863.06;;;0.81;76.08
62655;BME280;48717;55.556;37.816;2023-02-14T13:13:01;98899.28;;;0.74;77.48
62655;BME280;48717;55.556;37.816;2023-02-14T13:15:52;98825.28;;;0.18;77.20
62655;BME280;48717;55.556;37.816;2023-02-14T13:21:13;98869.38;;;0.18;77.84
62655;BME280;48717;55.556;37.816;2023-02-14T13:23:46;98896.22;;;0.20;76.22
62655;BME280;48717;55.556;37.816;2023-02-14T13:26:22;98889.03;;;0.10;75.36
62655;BME280;48717;55.556;37.816;2023-02-14T13:28:55;98920.31;;;0.16;76.78
62655;BME280;48717;55.556;37.816;2023-02-14T13:31:25;98907.13;;;0.07;76.57
62655;BME280;48717;55.556;37.816;2023-02-14T13:33:57;98930.78;;;0.21;76.70
62655;BME280;48717;55.556;37.816;2023-02-14T13:36:27;98934.28;;;0.21;77.10
62655;BME280;48717;55.556;37.816;2023-02-14T13:38:55;98897.06;;;-0.13;77.80
62655;BME280;48717;55.556;37.816;2023-02-14T13:41:25;98898.75;;;-0.15;78.05
62655;BME280;48717;55.556;37.816;2023-02-14T13:44:00;98922.31;;;-0.06;77.73
62655;BME280;48717;55.556;37.816;2023-02-14T13:55:20;98970.38;;;0.15;78.91
62655;BME280;48717;55.556;37.816;2023-02-14T13:58:02;98980.84;;;0.18;79.23
62655;BME280;48717;55.556;37.816;2023-02-14T14:00:38;98982.53;;;0.16;77.95
62655;BME280;48717;55.556;37.816;2023-02-14T14:03:11;98971.88;;;0.05;78.18
62655;BME280;48717;55.556;37.816;2023-02-14T14:10:56;98993.41;;;0.04;78.41
62655;BME280;48717;55.556;37.816;2023-02-14T14:16:26;99001.88;;;-0.03;77.54
62655;BME280;48717;55.556;37.816;2023-02-14T14:22:06;98999.06;;;-0.11;77.15
62655;BME280;48717;55.556;37.816;2023-02-14T14:24:36;98990.78;;;-0.28;78.12
62655;BME280;48717;55.556;37.816;2023-02-14T14:27:24;99028.38;;;-0.12;78.93
62655;BME280;48717;55.556;37.816;2023-02-14T14:29:55;99025.75;;;-0.14;78.40
62655;BME280;48717;55.556;37.816;2023-02-14T14:32:24;99035.34;;;-0.11;78.23
62655;BME280;48717;55.556;37.816;2023-02-14T14:34:58;98980.03;;;-0.42;79.05
62655;BME280;48717;55.556;37.816;2023-02-14T14:37:31;99015.91;;;-0.25;78.10
62655;BME280;48717;55.556;37.816;2023-02-14T14:40:02;99035.06;;;-0.20;78.64
62655;BME280;48717;55.556;37.816;2023-02-14T14:42:39;99042.97;;;-0.16;79.58
62655;BME280;48717;55.556;37.816;2023-02-14T14:45:19;98960.22;;;-0.71;79.17
62655;BME280;48717;55.556;37.816;2023-02-14T14:50:47;99025.81;;;-0.41;79.30
62655;BME280;48717;55.556;37.816;2023-02-14T14:54:15;99045.19;;;-0.28;79.39
62655;BME280;48717;55.556;37.816;2023-02-14T14:57:38;98965.56;;;-0.92;79.45
62655;BME280;48717;55.556;37.816;2023-02-14T15:05:37;99076.38;;;-0.25;81.24
62655;BME280;48717;55.556;37.816;2023-02-14T15:13:47;99093.63;;;-0.25;81.51
62655;BME280;48717;55.556;37.816;2023-02-14T15:16:48;99097.97;;;-0.26;81.50
62655;BME280;48717;55.556;37.816;2023-02-14T15:19:40;99102.19;;;-0.28;81.46
62655;BME280;48717;55.556;37.816;2023-02-14T15:22:21;99015.81;;;-0.85;80.76
62655;BME280;48717;55.556;37.816;2023-02-14T15:24:50;99096.88;;;-0.33;81.90
62655;BME280;48717;55.556;37.816;2023-02-14T15:27:20;99088.84;;;-0.41;81.68
62655;BME280;48717;55.556;37.816;2023-02-14T15:30:02;99114.31;;;-0.27;82.06
62655;BME280;48717;55.556;37.816;2023-02-14T15:32:31;99123.81;;;-0.28;80.86
62655;BME280;48717;55.556;37.816;2023-02-14T15:35:02;99119.47;;;-0.29;81.54
62655;BME280;48717;55.556;37.816;2023-02-14T15:37:30;99131.38;;;-0.34;81.25
62655;BME280;48717;55.556;37.816;2023-02-14T15:39:58;99131.47;;;-0.31;80.78
62655;BME280;48717;55.556;37.816;2023-02-14T15:47:53;99143.53;;;-0.33;80.96